Flight Track Log - Related Links

Times and Time Zones

All times are in EDT time to prevent confusion due to time zone crossing. See the JTL393 flight status page for this flight to view local times or setup timezone preferences in your user account.

Time Position Orientation Groundspeed Altitude Reporting Facility
EDT Latitude Longitude Course Direction KTS MPH feet Rate Location/Type
Sun 04:06:01 PM 41.2894 -95.9008 175° South 148 170 1,600  Level Minneapolis Center
Sun 04:06:42 PM 41.2600 -95.8975 175° South 159 183 3,700 2,885 Climbing Minneapolis Center
Sun 04:07:45 PM 41.2125 -95.9078 189° South 180 207 6,600 2,256 Climbing Minneapolis Center
Sun 04:08:47 PM 41.1908 -95.9867 250° West 215 247 8,400 2,032 Climbing Minneapolis Center
Sun 04:09:49 PM 41.1758 -96.0825 258° West 251 289 10,800 2,274 Climbing Minneapolis Center
Sun 04:10:51 PM 41.1575 -96.1864 257° West 279 321 13,100 2,177 Climbing Minneapolis Center
Sun 04:11:53 PM 41.1583 -96.2947 271° West 290 334 15,300 2,032 Climbing Minneapolis Center
Sun 04:12:55 PM 41.1578 -96.4053 270° West 295 339 17,300 2,129 Climbing Minneapolis Center
Sun 04:13:57 PM 41.1558 -96.5411 269° West 304 350 19,700 2,081 Climbing Minneapolis Center
Sun 04:14:59 PM 41.1553 -96.6553 270° West 309 356 21,600 1,839 Climbing Minneapolis Center
Sun 04:16:01 PM 41.1539 -96.7706 269° West 311 358 23,500 1,694 Climbing Minneapolis Center
Sun 04:17:03 PM 41.1531 -96.8856 269° West 312 359 25,100 1,306 Climbing Minneapolis Center
Sun 04:18:05 PM 41.1514 -97.0050 269° West 319 367 26,200 1,065 Climbing Minneapolis Center
Sun 04:19:07 PM 41.1500 -97.1328 269° West 339 390 27,300 1,161 Climbing Minneapolis Center
Sun 04:20:09 PM 41.1489 -97.2653 269° West 354 407 28,600 1,296 Climbing Minneapolis Center
Sun 04:21:12 PM 41.1469 -97.4083 269° West 357 411 30,000 1,488 Climbing Minneapolis Center
Sun 04:22:14 PM 41.1444 -97.5369 269° West 351 404 31,700 968 Climbing Minneapolis Center
Sun 04:23:16 PM 41.1422 -97.6928 269° West 352 405 32,000 145 Climbing Minneapolis Center
Sun 04:24:18 PM 41.1397 -97.8342 269° West 376 433 32,000  Level Minneapolis Center
Sun 04:25:20 PM 41.1367 -97.9806 268° West 392 451 32,000  Level Minneapolis Center
Sun 04:26:22 PM 41.1342 -98.1325 269° West 406 467 32,000  Level Minneapolis Center
Sun 04:27:24 PM 41.1306 -98.2839 268° West 410 472 32,000  Level Minneapolis Center
Sun 04:28:26 PM 41.1269 -98.4514 268° West 411 473 32,000  Level Minneapolis Center
Sun 04:29:28 PM 41.1233 -98.6003 268° West 407 468 32,000 145 Level Minneapolis Center
Sun 04:30:30 PM 41.1197 -98.7517 268° West 408 470 32,300 435 Climbing Minneapolis Center
Sun 04:31:32 PM 41.1131 -98.9033 267° West 412 474 32,900 581 Climbing Minneapolis Center
Sun 04:32:34 PM 41.0839 -99.0494 255° West 410 472 33,500 532 Climbing Minneapolis Center
Sun 04:33:36 PM 41.0556 -99.2208 258° West 403 464 34,000 242 Climbing Minneapolis Center
Sun 04:34:38 PM 41.0314 -99.3664 258° West 404 465 34,000  Level Minneapolis Center
Sun 04:35:41 PM 41.0072 -99.5125 258° West 406 467 34,000  Level Minneapolis Center
Sun 04:36:43 PM 40.9828 -99.6589 258° West 407 468 34,000 -242 Level Minneapolis Center
Sun 04:37:45 PM 40.9575 -99.8053 257° West 409 471 33,500 -581 Descending Minneapolis Center
Sun 04:38:47 PM 40.9325 -99.9528 257° West 410 472 32,800 -726 Descending Minneapolis Center
Sun 04:39:49 PM 40.9017 -100.1308 257° West 412 474 32,000 -387 Descending Minneapolis Center
Sun 04:40:51 PM 40.8753 -100.2783 257° West 413 475 32,000  Level Minneapolis Center
Sun 04:41:53 PM 40.8492 -100.4256 257° West 412 474 32,000  Level Minneapolis Center
Sun 04:42:55 PM 40.8225 -100.5725 257° West 412 474 32,000  Level Minneapolis Center
Sun 04:44:18 PM 40.7839 -100.7811 256° West 419 482 32,000  Level Denver Center
Sun 04:45:21 PM 40.7572 -100.9244 256° West 414 476 32,000  Level Denver Center
Sun 04:46:23 PM 40.7272 -101.0900 257° West 415 478 32,000  Level Denver Center
Sun 04:47:25 PM 40.7014 -101.2319 257° West 416 479 32,000  Level Denver Center
Sun 04:48:27 PM 40.6703 -101.3983 256° West 418 481 32,000 -435 Level Denver Center
Sun 04:49:29 PM 40.6447 -101.5378 256° West 412 474 31,100 -919 Descending Denver Center
Sun 04:50:31 PM 40.6133 -101.6992 256° West 408 470 30,100 -532 Descending Denver Center
Sun 04:51:33 PM 40.5867 -101.8383 256° West 410 472 30,000 -48 Descending Denver Center
Sun 04:52:35 PM 40.5553 -101.9981 256° West 406 467 30,000  Level Denver Center
Sun 04:53:37 PM 40.5286 -102.1358 256° West 406 467 30,000  Level Denver Center
Sun 04:54:39 PM 40.4964 -102.2967 255° West 408 470 30,000  Level Denver Center
Sun 04:55:41 PM 40.4725 -102.4347 257° West 407 468 30,000  Level Denver Center
Sun 04:56:44 PM 40.4425 -102.5933 256° West 402 463 30,000  Level Denver Center
Sun 04:57:46 PM 40.4192 -102.7156 256° West 400 460 30,000  Level Denver Center
Sun 04:58:48 PM 40.3875 -102.8867 256° West 403 464 30,000  Level Denver Center
Sun 04:59:50 PM 40.3597 -103.0311 256° West 408 470 30,000  Level Denver Center
Sun 05:00:52 PM 40.3317 -103.1764 256° West 413 475 30,000  Level Denver Center
Sun 05:01:54 PM 40.3028 -103.3256 256° West 422 486 30,000 -823 Level Denver Center
Sun 05:02:56 PM 40.2744 -103.4750 256° West 424 488 28,300 -2,129 Descending Denver Center
Sun 05:03:58 PM 40.2408 -103.6475 256° West 408 470 25,600 -2,419 Descending Denver Center
Sun 05:05:00 PM 40.2142 -103.7778 255° West 374 430 23,300 -2,032 Descending Denver Center
Sun 05:06:02 PM 40.1828 -103.8881 250° West 332 382 21,400 -1,742 Descending Denver Center
Sun 05:07:04 PM 40.1375 -103.9881 239° Southwest 298 343 19,700 -1,440 Descending Denver Center
Sun 05:08:07 PM 40.0983 -104.0731 239° Southwest 277 319 18,400 -1,344 Descending Denver Center
Sun 05:09:09 PM 40.0539 -104.1519 234° Southwest 252 290 16,900 -1,355 Descending Denver Center
Sun 05:10:11 PM 39.9928 -104.1922 207° Southwest 248 285 15,600 -919 Descending Denver Center
Sun 05:11:13 PM 39.9258 -104.2311 204° Southwest 263 303 15,000 -677 Descending Denver Center
Sun 05:12:15 PM 39.8539 -104.2717 203° Southwest 263 303 14,200 -919 Descending Denver Center
Sun 05:13:17 PM 39.7878 -104.3097 204° Southwest 260 299 13,100 -1,065 Descending Denver Center
Sun 05:14:19 PM 39.7158 -104.3514 204° Southwest 262 302 12,000 -532 Descending Denver Center
Sun 05:15:21 PM 39.6506 -104.3875 203° Southwest 256 295 12,000 -339 Level Denver Center
Sun 05:16:23 PM 39.6350 -104.4797 258° West 285 328 11,300 -1,113 Descending Denver Center
Sun 05:17:25 PM 39.6381 -104.5911 272° West 287 330 9,700 -1,306 Descending Denver Center
Sun 05:18:27 PM 39.6408 -104.6867 272° West 267 307 8,600 -919 Descending Denver Center
Sun 05:19:29 PM 39.6444 -104.7689 273° West 208 239 7,800 -677 Descending Denver Center
Sun 05:20:31 PM 39.6478 -104.8286 274° West 170 196 7,200 -581 Descending Denver Center
Sun 05:21:33 PM 39.6242 -104.8536 219° Southwest 141 162 6,600 -672 Descending Denver Center
Sun 05:22:36 PM 39.5842 -104.8519 178° South 134 154 5,800 -762 Descending Denver Center
Sun 05:24:00 PM 39.5701 -104.8493 174° South  Level Estimated
Sun 05:31:00 PM 39.5701 -104.8493 174° South  Level Estimated
Sun 05:32:00 PM 39.5701 -104.8493 174° South  Level Estimated

Login

Don't have an account? Register now (free) for customized features, flight alerts, and more!